ESDF

Ronneby Airport

Sweden
METAR ESDF 231350Z 27013KT 240V300 9999 FEW044 14/06 Q1005
Observed Flight Rules
Sep-23 @ 13:50 UTC (25 minutes ago) Visual Flight Rules
Wind Visibility Clouds
270° at 13 knots 10,000+ meters
Temperatures Readings
Current 14°C / 57°F
Dewpoint 6°C / 43°F
Humidity 59%
Altimeter 29.68" Hg
Pressure 1005 hPa
Elevation 74
METAR ESDF 231350Z 27013KT 240V300 9999 FEW044 14/06 Q1005
Observed Flight Rules
Sep-23 @ 13:50 UTC
(25 minutes ago)
VFR
Wind Visibility
270° at 13 knots 10,000+ meters
Clouds
Temperature Dewpoint
14°C / 57°F 6°C / 43°F
Humidity Altimeter Pressure
59% 29.68" Hg 1005 hPa